Time;durP1;ratioP1;P1;durP2;ratioP2;P2;SDS_P1;SDS_P2;PMS_P1;PMS_P2;Temp;Humidity;BMP_temperature;BMP_pressure;BME280_temperature;BME280_humidity;BME280_pressure;Samples;Min_cycle;Max_cycle;Signal;HPM_P1;HPM_P2
2022/06/26 00:02:53;;;;;;;10.40;8.10;;;;;;;17.32;57.21;100112.80;130290;1268;108744;-71
2022/06/26 00:05:58;;;;;;;8.50;7.30;;;;;;;17.26;57.42;100117.52;130321;1267;108841;-71
2022/06/26 00:09:03;;;;;;;8.30;7.40;;;;;;;17.25;57.43;100119.70;130289;1267;108949;-73
2022/06/26 00:12:09;;;;;;;8.90;7.80;;;;;;;17.23;57.50;100124.92;130212;1268;108713;-73
2022/06/26 00:15:15;;;;;;;8.30;7.40;;;;;;;17.20;57.63;100125.27;130317;1267;107657;-73
2022/06/26 00:18:20;;;;;;;9.20;8.10;;;;;;;17.19;57.64;100126.85;130190;1268;108623;-73
2022/06/26 00:21:25;;;;;;;9.20;7.90;;;;;;;17.17;57.77;100129.83;130234;1267;108835;-73
2022/06/26 00:24:30;;;;;;;11.00;7.80;;;;;;;17.16;57.90;100130.73;130194;1270;108674;-74
2022/06/26 00:27:36;;;;;;;10.30;8.60;;;;;;;17.14;57.94;100134.05;130317;1268;108755;-73
2022/06/26 00:30:41;;;;;;;9.70;7.90;;;;;;;17.10;57.96;100131.63;130324;1268;108737;-74
2022/06/26 00:33:46;;;;;;;9.60;8.10;;;;;;;17.07;58.02;100132.71;130279;1268;108615;-72
2022/06/26 00:36:51;;;;;;;8.90;8.00;;;;;;;17.04;58.22;100133.36;130316;1267;108864;-72
2022/06/26 00:39:56;;;;;;;10.50;8.50;;;;;;;16.98;58.20;100138.01;130319;1268;109303;-73
2022/06/26 00:43:02;;;;;;;8.80;7.90;;;;;;;16.94;58.41;100137.70;130292;1267;108656;-71
2022/06/26 00:46:07;;;;;;;9.30;8.10;;;;;;;16.90;58.48;100133.73;130297;1267;108764;-74
2022/06/26 00:49:13;;;;;;;8.60;7.40;;;;;;;16.84;58.56;100134.39;130313;1268;108806;-73
2022/06/26 00:52:20;;;;;;;8.70;7.80;;;;;;;16.79;58.62;100136.37;130331;1268;109564;-73
2022/06/26 00:55:25;;;;;;;9.20;7.80;;;;;;;16.74;58.85;100140.30;130286;1268;108736;-74
2022/06/26 00:58:31;;;;;;;8.40;7.50;;;;;;;16.71;58.95;100142.32;130351;1268;108759;-71
2022/06/26 01:01:36;;;;;;;8.50;7.20;;;;;;;16.68;59.06;100144.86;130186;1268;108760;-71
2022/06/26 01:04:42;;;;;;;7.60;6.80;;;;;;;16.68;59.17;100145.02;130345;1267;108806;-73
2022/06/26 01:07:48;;;;;;;7.70;6.90;;;;;;;16.69;59.17;100147.14;130348;1267;109139;-73
2022/06/26 01:10:53;;;;;;;8.50;7.40;;;;;;;16.67;59.16;100146.42;130362;1267;108807;-73
2022/06/26 01:14:00;;;;;;;7.70;6.90;;;;;;;16.67;59.14;100147.18;130359;1268;108599;-73
2022/06/26 01:17:06;;;;;;;8.60;7.50;;;;;;;16.68;59.33;100150.30;130399;1267;108712;-73
2022/06/26 01:20:13;;;;;;;9.00;7.70;;;;;;;16.66;59.37;100146.30;130201;1268;108765;-74
2022/06/26 01:23:19;;;;;;;8.00;7.20;;;;;;;16.61;59.49;100148.33;130399;1267;108688;-73
2022/06/26 01:26:24;;;;;;;8.30;7.30;;;;;;;16.58;59.54;100148.30;130231;1268;108916;-71
2022/06/26 01:29:30;;;;;;;8.30;7.20;;;;;;;16.55;59.49;100149.08;130253;1268;108765;-73
2022/06/26 01:32:36;;;;;;;8.10;7.30;;;;;;;16.51;59.52;100149.95;130307;1268;108948;-74
2022/06/26 01:35:41;;;;;;;7.90;7.10;;;;;;;16.47;59.54;100147.41;130321;1268;108940;-72
2022/06/26 01:38:48;;;;;;;9.10;7.20;;;;;;;16.43;59.73;100148.34;130205;1268;108778;-74
2022/06/26 01:41:54;;;;;;;8.20;7.40;;;;;;;16.41;59.75;100147.67;130292;1267;108934;-74
2022/06/26 01:44:59;;;;;;;7.70;7.00;;;;;;;16.37;59.93;100149.87;130285;1268;108859;-74
2022/06/26 01:48:05;;;;;;;8.00;7.20;;;;;;;16.32;59.96;100150.53;130329;1267;108701;-73
2022/06/26 01:51:11;;;;;;;7.00;6.20;;;;;;;16.26;60.04;100153.26;130162;1270;108744;-71
2022/06/26 01:54:18;;;;;;;7.30;6.30;;;;;;;16.22;60.19;100155.65;130249;1267;108696;-71
2022/06/26 01:57:24;;;;;;;7.60;6.90;;;;;;;16.22;60.16;100157.67;130250;1268;109038;-72
2022/06/26 02:00:33;;;;;;;7.50;6.80;;;;;;;16.22;60.20;100160.95;130185;1270;108681;-72
2022/06/26 02:03:38;;;;;;;7.50;6.80;;;;;;;16.21;60.32;100162.81;130276;1267;108839;-72
2022/06/26 02:06:44;;;;;;;9.00;7.20;;;;;;;16.23;60.33;100163.20;130238;1268;108933;-73
2022/06/26 02:13:37;;;;;;;7.70;6.90;;;;;;;16.19;60.39;100163.66;130310;1268;108850;-73
2022/06/26 02:16:43;;;;;;;7.50;6.80;;;;;;;16.17;60.47;100164.47;130149;1269;108807;-73
2022/06/26 02:19:50;;;;;;;7.70;6.90;;;;;;;16.12;60.46;100166.11;130195;1270;109062;-72
2022/06/26 02:22:55;;;;;;;7.60;6.80;;;;;;;16.09;60.68;100171.27;130188;1268;108789;-71
2022/06/26 02:26:00;;;;;;;7.90;7.10;;;;;;;16.06;60.77;100168.83;130303;1268;108641;-71
2022/06/26 02:29:06;;;;;;;9.00;7.20;;;;;;;16.03;60.85;100169.92;130195;1270;108695;-71
2022/06/26 02:32:11;;;;;;;7.80;7.00;;;;;;;16.00;60.88;100172.95;130187;1268;108586;-71
2022/06/26 02:35:17;;;;;;;8.00;7.20;;;;;;;15.98;60.95;100175.08;130183;1270;108653;-72
2022/06/26 02:38:22;;;;;;;7.40;6.40;;;;;;;15.95;60.96;100179.20;130207;1268;108843;-72
2022/06/26 02:41:27;;;;;;;7.20;6.30;;;;;;;15.95;61.11;100180.80;130155;1270;108879;-73
2022/06/26 02:44:35;;;;;;;7.60;6.60;;;;;;;15.97;61.07;100183.59;130191;1268;108897;-72
2022/06/26 02:47:41;;;;;;;8.70;6.60;;;;;;;16.00;61.20;100184.30;130216;1269;108706;-72
2022/06/26 02:50:46;;;;;;;7.70;6.90;;;;;;;16.05;61.19;100185.27;130176;1270;108749;-72
2022/06/26 02:53:52;;;;;;;7.10;6.20;;;;;;;16.09;61.30;100187.67;130201;1270;108820;-73
2022/06/26 02:56:59;;;;;;;7.50;6.70;;;;;;;16.12;61.36;100182.36;130140;1269;108931;-73
2022/06/26 03:00:06;;;;;;;10.10;7.00;;;;;;;16.13;61.29;100183.98;130160;1270;108672;-72
2022/06/26 03:03:16;;;;;;;7.60;6.80;;;;;;;16.16;61.30;100185.41;130168;1270;108877;-72
2022/06/26 03:06:22;;;;;;;8.80;7.10;;;;;;;16.18;61.34;100188.63;130203;1270;108733;-72
2022/06/26 03:09:27;;;;;;;7.40;6.50;;;;;;;16.20;61.33;100193.48;130113;1270;109133;-72
2022/06/26 03:12:32;;;;;;;7.60;6.90;;;;;;;16.24;61.67;100194.27;130062;1270;108849;-72
2022/06/26 03:15:37;;;;;;;8.10;7.30;;;;;;;16.30;61.71;100197.67;130172;1270;108801;-72
2022/06/26 03:18:43;;;;;;;8.00;7.10;;;;;;;16.43;61.63;100195.62;130154;1270;108912;-72
2022/06/26 03:21:48;;;;;;;9.40;6.60;;;;;;;16.68;61.62;100198.15;130010;1269;108940;-73
2022/06/26 03:24:54;;;;;;;7.60;6.80;;;;;;;16.99;61.53;100198.14;130170;1270;107588;-72
2022/06/26 03:28:05;;;;;;;8.70;6.80;;;;;;;17.36;61.46;100209.16;130198;1270;108722;-72
2022/06/26 03:31:16;;;;;;;8.60;7.40;;;;;;;17.72;61.31;100207.27;130120;1270;108719;-73
2022/06/26 03:34:23;;;;;;;8.90;7.80;;;;;;;18.08;61.15;100208.86;130111;1269;108855;-72
2022/06/26 03:37:28;;;;;;;7.50;6.80;;;;;;;18.43;60.95;100208.96;130194;1268;108704;-72
2022/06/26 03:40:34;;;;;;;7.10;6.30;;;;;;;18.78;60.84;100212.45;130127;1269;108565;-72
2022/06/26 03:43:40;;;;;;;7.40;6.60;;;;;;;19.08;60.75;100217.19;130136;1269;108742;-72
2022/06/26 03:46:45;;;;;;;7.10;6.40;;;;;;;19.38;60.59;100220.71;130286;1270;108453;-73
2022/06/26 03:49:52;;;;;;;8.00;6.20;;;;;;;19.67;60.37;100221.27;130231;1269;107682;-72
2022/06/26 03:52:58;;;;;;;6.50;5.90;;;;;;;19.97;60.27;100224.45;130254;1270;108719;-73
2022/06/26 03:56:04;;;;;;;7.10;6.20;;;;;;;20.24;60.20;100222.98;130137;1270;108796;-73
2022/06/26 03:59:10;;;;;;;6.50;5.90;;;;;;;20.46;60.09;100220.70;130157;1270;108813;-73
2022/06/26 04:02:15;;;;;;;6.50;5.90;;;;;;;20.69;60.02;100219.73;130176;1270;106778;-73
2022/06/26 04:05:21;;;;;;;6.10;5.50;;;;;;;20.95;59.92;100219.58;130224;1270;108707;-73
2022/06/26 04:08:27;;;;;;;6.00;5.40;;;;;;;21.19;59.79;100213.92;130237;1270;108863;-73
2022/06/26 04:11:41;;;;;;;6.70;5.50;;;;;;;21.43;59.72;100213.85;130174;1269;108924;-73
2022/06/26 04:14:47;;;;;;;5.80;5.10;;;;;;;21.65;59.68;100210.27;130160;1270;108884;-74
2022/06/26 04:17:54;;;;;;;6.50;5.70;;;;;;;21.86;59.65;100212.73;130051;1270;108794;-73
2022/06/26 04:21:00;;;;;;;5.90;5.40;;;;;;;22.08;59.66;100217.08;130129;1270;108713;-73
2022/06/26 04:24:06;;;;;;;6.00;5.40;;;;;;;22.30;59.63;100221.98;130179;1270;108983;-74
2022/06/26 04:27:12;;;;;;;6.70;5.30;;;;;;;22.47;59.36;100224.38;130172;1270;108752;-74
2022/06/26 04:30:18;;;;;;;5.40;4.90;;;;;;;22.65;59.20;100226.41;130207;1269;108846;-74
2022/06/26 04:33:23;;;;;;;5.90;5.30;;;;;;;22.79;59.14;100231.22;130190;1268;108933;-74
2022/06/26 04:36:28;;;;;;;5.20;4.70;;;;;;;22.93;58.98;100232.10;130266;1269;108838;-74
2022/06/26 04:39:35;;;;;;;6.00;4.90;;;;;;;23.07;58.51;100231.66;130213;1268;107667;-74
2022/06/26 04:42:44;;;;;;;6.10;4.70;;;;;;;23.24;58.44;100232.09;130222;1268;108960;-74
2022/06/26 04:45:49;;;;;;;5.40;4.90;;;;;;;23.38;58.22;100231.16;130249;1269;108880;-74
2022/06/26 04:48:56;;;;;;;5.10;4.60;;;;;;;23.53;58.12;100233.89;130263;1269;108670;-74
2022/06/26 04:52:01;;;;;;;6.10;4.50;;;;;;;23.66;57.56;100237.37;130266;1268;108659;-74
2022/06/26 04:55:19;;;;;;;4.70;4.20;;;;;;;23.77;57.31;100239.80;130257;1268;108681;-74
2022/06/26 04:58:26;;;;;;;4.90;4.50;;;;;;;23.87;56.98;100245.10;130286;1268;108947;-74
2022/06/26 05:01:34;;;;;;;6.90;4.70;;;;;;;23.99;56.96;100246.63;130226;1268;108840;-74
2022/06/26 05:05:14;;;;;;;4.80;4.30;;;;;;;24.09;56.48;100244.98;129861;1274;109090;-74
2022/06/26 05:08:30;;;;;;;5.10;4.30;;;;;;;24.18;56.33;100247.39;130302;1268;108664;-74
2022/06/26 05:11:36;;;;;;;6.70;4.30;;;;;;;24.25;55.96;100248.90;130262;1269;108782;-74
2022/06/26 05:14:42;;;;;;;5.90;4.50;;;;;;;24.34;55.74;100250.31;130259;1268;108840;-74
2022/06/26 05:17:55;;;;;;;4.80;4.30;;;;;;;24.40;55.46;100250.97;130316;1270;108809;-74
2022/06/26 05:21:01;;;;;;;4.60;3.90;;;;;;;24.49;55.50;100250.44;130271;1270;108887;-74
2022/06/26 05:24:13;;;;;;;4.90;4.40;;;;;;;24.57;55.25;100255.39;130291;1268;108811;-74
2022/06/26 05:27:24;;;;;;;5.30;4.20;;;;;;;24.63;55.17;100259.10;130280;1268;107530;-74
2022/06/26 05:30:29;;;;;;;4.60;4.10;;;;;;;24.70;55.20;100263.64;130246;1267;108692;-74
2022/06/26 05:33:40;;;;;;;4.30;3.90;;;;;;;24.79;54.91;100264.98;130202;1268;108667;-74
2022/06/26 05:36:48;;;;;;;4.70;4.10;;;;;;;24.87;55.00;100267.57;130237;1268;108700;-74
2022/06/26 05:39:54;;;;;;;5.90;4.20;;;;;;;24.93;54.78;100273.63;130216;1270;108978;-74
2022/06/26 05:43:00;;;;;;;4.40;4.00;;;;;;;25.00;54.64;100279.54;130280;1270;108870;-73
2022/06/26 05:46:06;;;;;;;5.70;4.00;;;;;;;25.07;54.23;100279.48;130288;1268;108789;-73
2022/06/26 05:49:34;;;;;;;4.10;3.70;;;;;;;25.13;54.17;100283.45;130333;1268;108703;-73
2022/06/26 05:52:58;;;;;;;5.00;4.10;;;;;;;25.21;53.85;100288.52;130239;1268;108877;-73
2022/06/26 05:56:22;;;;;;;5.80;4.00;;;;;;;25.25;53.65;100284.61;130203;1268;108924;-74
2022/06/26 05:59:51;;;;;;;4.40;3.60;;;;;;;25.28;53.22;100286.93;130225;1268;108958;-73
2022/06/26 06:03:05;;;;;;;4.90;3.90;;;;;;;25.30;53.25;100288.61;130258;1270;108753;-74
2022/06/26 06:06:10;;;;;;;3.90;3.50;;;;;;;25.32;53.08;100287.43;130206;1268;107778;-73
2022/06/26 06:09:17;;;;;;;4.10;3.50;;;;;;;25.35;52.96;100290.26;130228;1268;108924;-73
2022/06/26 06:12:22;;;;;;;3.60;3.30;;;;;;;25.37;52.56;100293.79;130214;1268;107863;-73
2022/06/26 06:15:28;;;;;;;4.00;3.60;;;;;;;25.37;52.34;100297.34;130236;1268;108914;-73
2022/06/26 06:18:35;;;;;;;6.60;3.90;;;;;;;25.35;52.25;100297.86;130123;1269;108673;-73
2022/06/26 06:21:40;;;;;;;4.30;3.60;;;;;;;25.34;52.24;100298.88;130218;1268;108965;-73
2022/06/26 06:24:46;;;;;;;3.90;3.50;;;;;;;25.34;52.11;100306.37;130273;1270;108910;-73
2022/06/26 06:27:52;;;;;;;4.90;3.40;;;;;;;25.34;51.92;100307.08;130337;1268;107637;-73
2022/06/26 06:31:00;;;;;;;5.60;3.60;;;;;;;25.34;51.78;100304.27;130298;1268;109112;-73
2022/06/26 06:34:08;;;;;;;4.30;3.40;;;;;;;25.33;51.81;100306.68;130207;1268;108766;-73
2022/06/26 06:37:14;;;;;;;7.90;3.50;;;;;;;25.33;51.42;100307.94;130257;1270;107319;-73
2022/06/26 06:40:20;;;;;;;4.00;3.40;;;;;;;25.32;51.45;100314.90;130210;1268;109142;-73
2022/06/26 06:43:26;;;;;;;3.60;3.30;;;;;;;25.32;51.38;100316.27;130231;1268;108757;-74
2022/06/26 06:47:01;;;;;;;3.90;3.50;;;;;;;25.36;51.49;100326.17;130231;1268;108866;-74
2022/06/26 06:50:09;;;;;;;4.80;3.70;;;;;;;25.37;51.12;100324.92;130234;1270;108942;-73
2022/06/26 06:53:14;;;;;;;4.60;3.70;;;;;;;25.37;51.04;100322.48;130259;1268;108745;-73
2022/06/26 06:56:20;;;;;;;4.80;3.70;;;;;;;25.38;50.87;100317.29;130188;1268;108600;-74
2022/06/26 06:59:25;;;;;;;6.30;3.30;;;;;;;25.39;50.69;100322.45;130242;1268;108761;-73
2022/06/26 07:02:31;;;;;;;3.50;3.20;;;;;;;25.39;50.29;100320.64;130209;1268;108679;-74
2022/06/26 07:05:38;;;;;;;6.10;3.40;;;;;;;25.42;50.16;100322.33;130210;1270;108651;-73
2022/06/26 07:08:44;;;;;;;4.70;3.40;;;;;;;25.46;50.24;100320.97;130222;1268;108720;-74
2022/06/26 07:11:49;;;;;;;4.10;3.00;;;;;;;25.55;50.30;100320.71;130276;1268;108922;-73
2022/06/26 07:14:55;;;;;;;4.70;3.00;;;;;;;25.61;50.13;100324.19;130212;1270;108719;-74
2022/06/26 07:18:00;;;;;;;3.90;3.30;;;;;;;25.68;49.86;100324.08;130245;1268;108951;-73
2022/06/26 07:21:07;;;;;;;5.90;3.20;;;;;;;25.75;49.89;100324.45;130222;1269;108904;-74
2022/06/26 07:24:16;;;;;;;3.80;3.40;;;;;;;25.82;49.87;100324.71;130239;1268;108889;-74
2022/06/26 07:27:48;;;;;;;3.40;2.90;;;;;;;25.92;49.58;100324.35;130220;1271;108759;-73
2022/06/26 07:30:54;;;;;;;3.80;3.30;;;;;;;25.99;49.60;100317.89;130257;1269;108489;-75
2022/06/26 07:34:16;;;;;;;4.00;3.20;;;;;;;26.06;49.36;100321.71;130274;1270;107608;-73
2022/06/26 07:37:21;;;;;;;4.40;3.20;;;;;;;26.16;49.28;100322.92;130230;1268;108866;-73
2022/06/26 07:40:27;;;;;;;4.10;3.00;;;;;;;26.22;49.25;100322.73;130216;1268;108688;-73
2022/06/26 07:43:33;;;;;;;3.70;2.80;;;;;;;26.31;48.81;100321.18;130229;1268;108951;-73
2022/06/26 07:46:39;;;;;;;3.10;2.80;;;;;;;26.37;48.48;100323.55;130276;1268;108772;-74
2022/06/26 07:49:46;;;;;;;3.40;2.70;;;;;;;26.45;48.47;100323.75;130361;1268;108948;-82
2022/06/26 07:52:51;;;;;;;7.20;2.80;;;;;;;26.53;48.36;100321.00;130435;1267;107604;-84
2022/06/26 07:55:56;;;;;;;4.20;2.80;;;;;;;26.62;48.13;100321.39;130421;1268;108931;-82
2022/06/26 08:04:07;;;;;;;6.30;2.70;;;;;;;26.77;47.12;100320.12;130368;1269;109140;-83
2022/06/26 08:07:12;;;;;;;3.90;2.70;;;;;;;26.82;46.55;100323.17;130291;1268;108851;-83
2022/06/26 08:10:18;;;;;;;3.40;2.50;;;;;;;26.84;46.24;100316.41;130289;1268;109520;-84
2022/06/26 08:13:23;;;;;;;3.80;2.70;;;;;;;26.90;46.21;100322.91;130313;1268;107472;-84
2022/06/26 08:16:28;;;;;;;3.30;2.50;;;;;;;26.93;45.51;100318.67;130288;1268;108688;-83
2022/06/26 08:19:33;;;;;;;3.30;2.50;;;;;;;26.97;45.04;100320.25;130305;1268;107137;-84
2022/06/26 08:22:38;;;;;;;4.90;2.40;;;;;;;27.00;44.87;100324.10;130303;1268;108936;-84
2022/06/26 08:25:44;;;;;;;4.40;2.40;;;;;;;27.03;44.01;100319.02;130331;1268;108959;-83
2022/06/26 08:28:50;;;;;;;4.80;2.60;;;;;;;27.06;43.86;100320.64;130281;1268;108574;-83
2022/06/26 08:31:55;;;;;;;2.70;2.50;;;;;;;27.07;43.46;100320.10;130295;1268;108741;-79
2022/06/26 08:35:00;;;;;;;5.50;2.60;;;;;;;27.10;43.57;100326.22;130136;1272;108974;-79
2022/06/26 08:38:06;;;;;;;4.80;3.50;;;;;;;27.16;43.14;100325.45;130222;1268;108529;-81
2022/06/26 08:41:12;;;;;;;5.40;4.20;;;;;;;27.21;43.08;100325.36;130327;1268;108662;-81
2022/06/26 08:44:18;;;;;;;3.10;2.80;;;;;;;27.25;42.96;100324.81;130326;1268;108875;-81
2022/06/26 08:47:25;;;;;;;3.80;2.80;;;;;;;27.29;42.47;100328.48;130139;1268;108917;-81
2022/06/26 08:50:31;;;;;;;3.90;2.50;;;;;;;27.32;42.63;100327.52;130163;1268;108947;-81
2022/06/26 08:53:37;;;;;;;3.60;2.70;;;;;;;27.35;42.27;100322.83;130213;1268;108669;-81
2022/06/26 08:56:45;;;;;;;3.60;2.50;;;;;;;27.38;42.61;100321.26;130257;1268;108736;-81
2022/06/26 08:59:50;;;;;;;3.10;2.80;;;;;;;27.49;42.14;100318.85;130252;1268;108804;-81
2022/06/26 09:02:55;;;;;;;3.00;2.50;;;;;;;27.56;41.80;100323.30;130313;1268;108654;-81
2022/06/26 09:06:01;;;;;;;3.30;2.60;;;;;;;27.58;41.16;100328.02;130201;1268;108668;-81
2022/06/26 09:09:16;;;;;;;3.20;2.80;;;;;;;27.59;41.75;100318.93;130184;1268;108798;-80
2022/06/26 09:12:22;;;;;;;2.70;2.50;;;;;;;27.66;41.70;100320.40;130313;1268;108737;-81
2022/06/26 09:15:28;;;;;;;3.30;2.50;;;;;;;27.68;41.44;100323.36;130322;1268;108876;-81
2022/06/26 09:18:37;;;;;;;3.10;2.80;;;;;;;27.70;41.47;100327.15;130302;1268;107671;-82
2022/06/26 09:21:43;;;;;;;3.40;2.50;;;;;;;27.75;41.28;100327.56;130102;1269;108773;-82
2022/06/26 09:24:56;;;;;;;5.90;2.60;;;;;;;27.77;40.99;100324.68;130121;1270;108699;-82
2022/06/26 09:28:09;;;;;;;4.80;3.10;;;;;;;27.83;41.29;100320.75;130095;1269;108589;-82
2022/06/26 09:31:19;;;;;;;3.70;2.60;;;;;;;27.87;40.44;100322.48;130101;1271;108957;-80
2022/06/26 09:34:26;;;;;;;3.60;2.70;;;;;;;27.88;40.58;100313.59;129979;1270;108811;-80
2022/06/26 09:37:39;;;;;;;2.70;2.50;;;;;;;27.92;40.65;100320.06;130222;1271;108211;-81
2022/06/26 09:40:50;;;;;;;3.50;2.50;;;;;;;28.00;40.52;100320.27;129989;1270;108555;-81
2022/06/26 09:43:55;;;;;;;5.00;3.10;;;;;;;28.05;40.40;100319.52;130103;1270;108839;-82
2022/06/26 09:47:01;;;;;;;4.60;2.60;;;;;;;28.10;40.48;100314.94;130186;1270;107024;-81
2022/06/26 09:50:08;;;;;;;3.50;2.70;;;;;;;28.17;40.39;100322.98;130113;1271;108725;-81
2022/06/26 09:53:15;;;;;;;3.60;2.80;;;;;;;28.18;39.99;100324.90;129999;1271;107706;-82
2022/06/26 09:56:21;;;;;;;4.20;2.50;;;;;;;28.17;39.82;100322.26;130286;1270;108667;-82
2022/06/26 09:59:26;;;;;;;3.50;2.60;;;;;;;28.17;39.57;100324.28;130207;1270;109131;-82
2022/06/26 10:09:23;;;;;;;3.20;2.40;;;;;;;28.13;39.66;100319.01;130186;1271;107319;-83
2022/06/26 10:12:29;;;;;;;4.80;2.50;;;;;;;28.20;39.49;100316.02;130158;1271;108775;-86
2022/06/26 10:15:41;;;;;;;8.30;2.60;;;;;;;28.25;39.37;100312.45;130128;1271;107748;-87
2022/06/26 10:19:06;;;;;;;3.60;2.40;;;;;;;28.27;39.17;100313.34;130200;1271;108807;-86
2022/06/26 10:22:12;;;;;;;3.80;2.50;;;;;;;28.27;39.10;100312.96;130136;1270;108834;-89
2022/06/26 10:25:27;;;;;;;4.00;2.50;;;;;;;28.28;38.86;100312.80;130271;1271;108718;-90
2022/06/26 10:28:32;;;;;;;5.70;2.40;;;;;;;28.29;38.47;100312.64;130342;1268;108923;-82
2022/06/26 10:31:48;;;;;;;2.90;2.40;;;;;;;28.28;38.55;100313.13;130090;1270;108979;-85
2022/06/26 10:34:58;;;;;;;6.60;2.80;;;;;;;28.32;38.33;100317.48;130230;1270;108952;-86
2022/06/26 10:38:19;;;;;;;3.80;2.50;;;;;;;28.33;38.37;100320.27;130133;1271;108887;-85
2022/06/26 10:44:55;;;;;;;3.20;2.30;;;;;;;28.36;38.34;100315.40;130168;1270;108494;-84
2022/06/26 10:48:02;;;;;;;3.10;2.50;;;;;;;28.44;38.34;100309.60;130155;1270;108706;-85
2022/06/26 10:51:08;;;;;;;4.20;2.30;;;;;;;28.51;38.23;100309.41;130128;1270;108833;-85
2022/06/26 10:54:22;;;;;;;3.00;2.80;;;;;;;28.58;38.30;100316.09;130201;1270;109132;-86
2022/06/26 10:57:35;;;;;;;3.90;2.70;;;;;;;28.65;38.41;100312.97;130322;1270;107709;-84
2022/06/26 11:00:41;;;;;;;2.70;2.50;;;;;;;28.65;38.30;100309.85;130336;1269;109194;-87
2022/06/26 11:03:46;;;;;;;2.80;2.40;;;;;;;28.68;38.32;100316.33;130301;1270;108900;-84
2022/06/26 11:06:52;;;;;;;6.10;2.50;;;;;;;28.72;37.67;100317.98;130193;1269;109104;-85
2022/06/26 11:26:01;;;;;;;3.20;2.20;;;;;;;29.22;36.80;100300.11;126020;1309;648962;-90
2022/06/26 11:29:08;;;;;;;2.50;2.30;;;;;;;29.32;36.43;100300.59;129328;1277;266072;-89
2022/06/26 11:32:14;;;;;;;2.60;2.20;;;;;;;29.32;36.64;100302.08;129530;1277;109012;-89
2022/06/26 11:35:28;;;;;;;2.70;2.50;;;;;;;29.33;36.70;100303.66;129499;1277;107809;-90
2022/06/26 11:38:34;;;;;;;2.30;2.10;;;;;;;29.32;36.59;100303.66;129530;1278;107657;-88
2022/06/26 11:41:41;;;;;;;2.80;2.50;;;;;;;29.25;36.31;100303.02;129535;1277;108463;-89
2022/06/26 11:44:51;;;;;;;2.50;2.30;;;;;;;29.21;36.56;100305.61;129517;1277;105844;-87
2022/06/26 11:47:57;;;;;;;2.40;2.20;;;;;;;29.22;36.28;100303.73;129499;1277;107759;-90
2022/06/26 11:51:02;;;;;;;3.40;2.20;;;;;;;29.17;36.01;100299.56;130134;1270;107833;-88
2022/06/26 11:54:07;;;;;;;3.00;2.40;;;;;;;29.14;36.11;100298.14;130274;1270;108533;-75
2022/06/26 11:57:13;;;;;;;2.80;2.30;;;;;;;29.11;35.47;100302.14;130044;1270;108563;-73
2022/06/26 12:00:20;;;;;;;3.30;2.20;;;;;;;29.06;35.52;100302.52;130210;1270;108625;-74
2022/06/26 12:03:25;;;;;;;2.50;2.30;;;;;;;29.05;35.73;100307.34;130043;1269;107508;-74
2022/06/26 12:06:33;;;;;;;2.80;2.30;;;;;;;29.07;36.00;100304.15;130121;1270;108962;-74
2022/06/26 12:09:38;;;;;;;3.50;2.30;;;;;;;29.10;35.84;100301.74;130012;1270;108885;-74
2022/06/26 12:12:52;;;;;;;4.60;2.60;;;;;;;29.11;35.69;100299.33;130027;1270;108631;-74
2022/06/26 12:16:03;;;;;;;2.60;2.40;;;;;;;29.15;35.72;100300.34;130104;1271;108813;-72
2022/06/26 12:19:09;;;;;;;2.80;2.50;;;;;;;29.17;35.94;100296.20;129985;1272;108821;-72
2022/06/26 12:22:14;;;;;;;3.00;2.60;;;;;;;29.22;35.89;100299.29;130177;1273;108823;-71
2022/06/26 12:25:29;;;;;;;3.40;2.10;;;;;;;29.20;35.74;100301.54;129996;1272;107624;-72
2022/06/26 12:28:42;;;;;;;2.50;2.30;;;;;;;29.16;35.74;100304.52;130136;1273;108908;-71
2022/06/26 12:31:48;;;;;;;2.70;2.30;;;;;;;29.17;35.78;100302.66;130109;1273;108623;-71
2022/06/26 12:34:53;;;;;;;2.70;2.50;;;;;;;29.21;35.81;100305.34;130054;1272;107367;-72
2022/06/26 12:37:59;;;;;;;3.20;2.30;;;;;;;29.24;35.96;100296.42;130076;1273;109056;-74
2022/06/26 12:41:05;;;;;;;3.00;2.40;;;;;;;29.31;35.95;100296.42;130139;1272;108662;-73
2022/06/26 12:44:10;;;;;;;3.20;2.40;;;;;;;29.33;35.74;100290.53;130080;1273;108870;-72
2022/06/26 12:47:15;;;;;;;3.20;2.60;;;;;;;29.33;35.68;100293.72;130046;1273;108992;-72
2022/06/26 12:50:21;;;;;;;3.90;2.30;;;;;;;29.32;35.83;100296.74;130041;1273;109040;-73
2022/06/26 12:53:26;;;;;;;2.40;2.20;;;;;;;29.33;35.71;100292.34;130088;1273;108834;-73
2022/06/26 12:56:31;;;;;;;3.20;2.40;;;;;;;29.35;35.67;100294.55;130079;1272;108872;-72
2022/06/26 12:59:36;;;;;;;2.50;2.30;;;;;;;29.37;35.73;100289.31;130079;1273;108899;-73
2022/06/26 13:02:42;;;;;;;3.40;2.50;;;;;;;29.40;35.74;100288.59;130046;1273;108732;-79
2022/06/26 13:05:47;;;;;;;4.00;2.50;;;;;;;29.42;35.57;100286.27;130113;1273;108789;-79
2022/06/26 13:08:52;;;;;;;4.70;2.70;;;;;;;29.46;35.88;100288.20;130097;1271;108742;-74
2022/06/26 13:11:57;;;;;;;2.80;2.60;;;;;;;29.49;35.49;100289.50;130099;1271;108687;-73
2022/06/26 13:15:03;;;;;;;3.20;2.80;;;;;;;29.47;35.59;100290.78;130089;1271;108822;-78
2022/06/26 13:18:08;;;;;;;4.30;3.10;;;;;;;29.49;35.72;100294.63;130017;1271;108756;-82
2022/06/26 13:21:13;;;;;;;3.20;2.90;;;;;;;29.50;35.57;100292.37;130130;1271;109179;-77
2022/06/26 13:24:19;;;;;;;3.70;2.90;;;;;;;29.48;35.18;100290.23;130073;1271;108781;-76
2022/06/26 13:27:25;;;;;;;4.40;2.70;;;;;;;29.48;35.36;100293.53;130131;1271;108950;-78
2022/06/26 13:30:30;;;;;;;3.80;2.80;;;;;;;29.51;35.12;100287.59;130196;1271;108699;-78
2022/06/26 13:33:36;;;;;;;3.70;2.60;;;;;;;29.52;34.88;100288.08;130140;1271;108870;-77
2022/06/26 13:36:41;;;;;;;3.60;2.70;;;;;;;29.50;35.13;100288.73;130021;1271;108880;-78
2022/06/26 13:39:46;;;;;;;3.20;2.90;;;;;;;29.50;35.05;100290.88;129952;1271;108825;-77
2022/06/26 13:42:51;;;;;;;3.20;2.70;;;;;;;29.54;35.15;100290.66;130045;1271;108194;-77
2022/06/26 13:45:57;;;;;;;2.60;2.40;;;;;;;29.57;34.96;100289.27;130025;1271;108642;-77
2022/06/26 13:49:02;;;;;;;3.90;3.00;;;;;;;29.60;35.00;100289.81;129979;1271;108594;-77
2022/06/26 13:52:08;;;;;;;2.60;2.40;;;;;;;29.63;34.97;100287.33;130043;1271;108694;-76
2022/06/26 13:55:13;;;;;;;3.10;2.70;;;;;;;29.64;34.78;100287.61;130112;1271;108654;-77
2022/06/26 13:58:19;;;;;;;3.00;2.50;;;;;;;29.60;34.41;100288.38;130031;1271;108830;-77
2022/06/26 14:01:26;;;;;;;2.50;2.30;;;;;;;29.55;34.37;100289.44;129960;1271;108750;-77
2022/06/26 14:04:33;;;;;;;2.80;2.40;;;;;;;29.51;34.64;100284.45;129958;1271;108968;-78
2022/06/26 14:07:38;;;;;;;3.30;2.50;;;;;;;29.52;34.96;100284.77;129980;1271;108444;-77
2022/06/26 14:10:43;;;;;;;5.00;2.60;;;;;;;29.56;34.82;100287.63;130003;1271;108745;-77
2022/06/26 14:13:49;;;;;;;2.80;2.50;;;;;;;29.59;35.06;100281.34;129890;1271;108854;-77
2022/06/26 14:16:54;;;;;;;2.60;2.40;;;;;;;29.62;35.00;100282.83;130033;1271;108812;-77
2022/06/26 14:19:59;;;;;;;3.10;2.60;;;;;;;29.64;34.77;100279.19;130116;1271;107849;-77
2022/06/26 14:26:27;;;;;;;3.40;2.30;;;;;;;29.62;34.45;100282.44;130004;1271;108763;-77
2022/06/26 14:29:32;;;;;;;3.10;2.40;;;;;;;29.58;34.31;100279.76;129944;1271;108826;-78
2022/06/26 14:32:38;;;;;;;2.40;2.20;;;;;;;29.54;34.30;100276.30;129954;1271;108319;-77
2022/06/26 14:35:43;;;;;;;3.10;2.30;;;;;;;29.52;34.44;100277.20;130042;1273;108600;-77
2022/06/26 14:38:48;;;;;;;2.60;2.30;;;;;;;29.53;34.47;100270.74;130085;1271;108777;-76
2022/06/26 14:41:53;;;;;;;2.40;2.20;;;;;;;29.51;34.30;100272.63;130113;1271;108988;-78
2022/06/26 14:44:58;;;;;;;7.40;2.50;;;;;;;29.48;34.31;100273.89;130018;1271;108736;-77
2022/06/26 14:48:05;;;;;;;2.60;2.40;;;;;;;29.47;34.27;100271.10;129959;1271;108667;-77
2022/06/26 14:51:10;;;;;;;3.50;2.40;;;;;;;29.45;34.15;100270.16;129930;1271;108438;-78